createdAt,value
2023-05-20T00:00:11.585Z,11.73
2023-05-20T00:01:11.565Z,11.72
2023-05-20T00:02:11.538Z,11.70
2023-05-20T00:03:11.574Z,11.65
2023-05-20T00:04:11.738Z,11.73
2023-05-20T00:05:11.500Z,11.79
2023-05-20T00:06:11.516Z,11.80
2023-05-20T00:07:11.482Z,11.75
2023-05-20T00:08:11.483Z,11.72
2023-05-20T00:09:11.464Z,11.82
2023-05-20T00:10:11.448Z,11.86
2023-05-20T00:11:11.446Z,11.76
2023-05-20T00:12:11.428Z,11.90
2023-05-20T00:13:11.405Z,11.76
2023-05-20T00:14:11.398Z,11.75
2023-05-20T00:15:11.386Z,11.82
2023-05-20T00:16:11.420Z,11.73
2023-05-20T00:17:11.357Z,11.76
2023-05-20T00:18:11.436Z,11.76
2023-05-20T00:19:11.399Z,11.80
2023-05-20T00:20:11.358Z,11.78
2023-05-20T00:21:11.313Z,11.80
2023-05-20T00:22:11.324Z,11.82
2023-05-20T00:23:11.291Z,11.83
2023-05-20T00:24:11.310Z,11.79
2023-05-20T00:25:11.269Z,11.64
2023-05-20T00:26:11.286Z,11.69
2023-05-20T00:27:11.249Z,11.70
2023-05-20T00:28:11.242Z,11.70
2023-05-20T00:29:11.220Z,11.67
2023-05-20T00:30:11.225Z,11.69
2023-05-20T00:31:11.221Z,11.69
2023-05-20T00:32:11.301Z,11.70
2023-05-20T00:33:11.231Z,11.70
2023-05-20T00:34:11.179Z,11.73
2023-05-20T00:35:11.150Z,11.72
2023-05-20T00:36:11.152Z,11.70
2023-05-20T00:37:11.144Z,11.69
2023-05-20T00:38:11.130Z,11.73
2023-05-20T00:39:11.106Z,11.73
2023-05-20T00:40:13.012Z,11.72
2023-05-20T00:41:11.105Z,11.73
2023-05-20T00:42:11.101Z,11.73
2023-05-20T00:43:11.060Z,11.73
2023-05-20T00:44:11.066Z,11.73
2023-05-20T00:45:11.037Z,11.78
2023-05-20T00:46:11.120Z,11.78
2023-05-20T00:47:11.011Z,11.69
2023-05-20T00:48:11.091Z,11.70
2023-05-20T00:49:11.003Z,11.64
2023-05-20T00:50:10.989Z,11.69
2023-05-20T00:51:10.983Z,11.67
2023-05-20T00:52:10.957Z,11.64
2023-05-20T00:53:10.949Z,11.70
2023-05-20T00:54:10.966Z,11.70
2023-05-20T00:55:10.917Z,11.64
2023-05-20T00:56:10.935Z,11.69
2023-05-20T00:57:10.892Z,11.70
2023-05-20T00:58:10.911Z,11.69
2023-05-20T00:59:10.890Z,11.72
2023-05-20T01:00:10.879Z,11.69
2023-05-20T01:01:10.897Z,11.73
2023-05-20T01:02:10.886Z,11.65
2023-05-20T01:03:10.981Z,11.70
2023-05-20T01:04:10.848Z,11.70
2023-05-20T01:05:10.814Z,11.65
2023-05-20T01:06:10.802Z,11.73
2023-05-20T01:07:10.779Z,11.69
2023-05-20T01:08:10.786Z,11.62
2023-05-20T01:09:10.908Z,11.69
2023-05-20T01:10:10.770Z,11.65
2023-05-20T01:11:10.731Z,11.67
2023-05-20T01:12:10.749Z,11.60
2023-05-20T01:13:10.717Z,11.58
2023-05-20T01:14:10.716Z,11.69
2023-05-20T01:15:10.771Z,11.72
2023-05-20T01:16:10.742Z,11.69
2023-05-20T01:17:10.662Z,11.64
2023-05-20T01:18:10.792Z,11.61
2023-05-20T01:19:10.714Z,11.67
2023-05-20T01:20:10.669Z,11.67
2023-05-20T01:21:10.615Z,11.64
2023-05-20T01:22:10.640Z,11.75
2023-05-20T01:23:10.596Z,11.70
2023-05-20T01:24:10.613Z,11.62
2023-05-20T01:25:10.594Z,11.67
2023-05-20T01:26:10.599Z,11.61
2023-05-20T01:27:10.549Z,11.65
2023-05-20T01:28:10.563Z,11.70
2023-05-20T01:29:10.534Z,11.70
2023-05-20T01:30:10.540Z,11.61
2023-05-20T01:31:10.559Z,11.70
2023-05-20T01:32:10.500Z,11.69
2023-05-20T01:33:10.628Z,11.65
2023-05-20T01:34:10.487Z,11.58
2023-05-20T01:35:10.496Z,11.58
2023-05-20T01:36:10.457Z,11.58
2023-05-20T01:37:10.440Z,11.62
2023-05-20T01:38:10.452Z,11.60
2023-05-20T01:39:10.435Z,11.60
2023-05-20T01:40:10.418Z,11.61
2023-05-20T01:41:10.408Z,11.61
2023-05-20T01:42:10.395Z,11.55
2023-05-20T01:43:10.422Z,11.58
2023-05-20T01:44:10.978Z,11.51
2023-05-20T01:45:10.363Z,11.55
2023-05-20T01:46:10.397Z,11.57
2023-05-20T01:47:10.325Z,11.61
2023-05-20T01:48:10.377Z,11.61
2023-05-20T01:49:10.292Z,11.55
2023-05-20T01:50:10.315Z,11.54
2023-05-20T01:51:10.272Z,11.60
2023-05-20T01:52:10.277Z,11.52
2023-05-20T01:53:10.285Z,11.58
2023-05-20T01:54:10.293Z,11.55
2023-05-20T01:55:10.236Z,11.54
2023-05-20T01:56:10.222Z,11.54
2023-05-20T01:57:10.220Z,11.52
2023-05-20T01:58:10.216Z,11.52
2023-05-20T01:59:10.181Z,11.47
2023-05-20T02:00:10.220Z,11.49
2023-05-20T02:01:10.205Z,11.60
2023-05-20T02:02:10.216Z,11.60
2023-05-20T02:03:10.205Z,11.46
2023-05-20T02:04:10.150Z,11.47
2023-05-20T02:05:10.154Z,11.47
2023-05-20T02:06:10.197Z,11.44
2023-05-20T02:07:10.104Z,11.54
2023-05-20T02:08:10.092Z,11.51
2023-05-20T02:09:10.067Z,11.51
2023-05-20T02:10:12.961Z,11.52
2023-05-20T02:11:10.062Z,11.42
2023-05-20T02:12:10.057Z,11.40
2023-05-20T02:13:10.022Z,11.46
2023-05-20T02:14:10.018Z,11.40
2023-05-20T02:15:10.015Z,11.35
2023-05-20T02:16:10.122Z,11.42
2023-05-20T02:17:09.984Z,11.46
2023-05-20T02:18:10.073Z,11.35
2023-05-20T02:19:10.077Z,11.39
2023-05-20T02:20:09.952Z,11.40
2023-05-20T02:21:09.932Z,11.28
2023-05-20T02:22:09.926Z,11.33
2023-05-20T02:23:09.913Z,11.27
2023-05-20T02:24:09.939Z,11.28
2023-05-20T02:25:09.886Z,11.37
2023-05-20T02:26:09.882Z,11.32
2023-05-20T02:27:09.868Z,11.36
2023-05-20T02:28:09.881Z,11.25
2023-05-20T02:29:09.861Z,11.33
2023-05-20T02:30:09.847Z,11.28
2023-05-20T02:31:09.828Z,11.36
2023-05-20T02:32:09.833Z,11.25
2023-05-20T02:33:09.940Z,11.27
2023-05-20T02:34:09.818Z,11.22
2023-05-20T02:35:09.793Z,11.18
2023-05-20T02:36:09.797Z,11.25
2023-05-20T02:37:09.772Z,11.29
2023-05-20T02:38:09.744Z,11.25
2023-05-20T02:39:09.755Z,11.18
2023-05-20T02:40:09.745Z,11.19
2023-05-20T02:41:09.731Z,11.21
2023-05-20T02:42:09.718Z,11.21
2023-05-20T02:43:09.681Z,11.21
2023-05-20T02:44:09.678Z,11.11
2023-05-20T02:45:09.665Z,11.14
2023-05-20T02:46:09.705Z,11.24
2023-05-20T02:47:09.636Z,11.11
2023-05-20T02:48:09.726Z,11.22
2023-05-20T02:49:09.616Z,11.19
2023-05-20T02:50:09.610Z,11.18
2023-05-20T02:51:09.615Z,11.18
2023-05-20T02:52:09.594Z,11.14
2023-05-20T02:53:09.598Z,11.15
2023-05-20T02:54:09.616Z,11.11
2023-05-20T02:55:09.577Z,11.07
2023-05-20T02:56:09.554Z,11.02
2023-05-20T02:57:09.521Z,11.04
2023-05-20T02:58:09.521Z,11.02
2023-05-20T02:59:09.500Z,11.07
2023-05-20T03:00:09.513Z,11.06
2023-05-20T03:01:09.527Z,11.03
2023-05-20T03:02:09.471Z,11.06
2023-05-20T03:03:09.497Z,11.02
2023-05-20T03:04:09.501Z,11.06
2023-05-20T03:05:09.451Z,11.06
2023-05-20T03:06:09.422Z,11.04
2023-05-20T03:07:09.409Z,11.10
2023-05-20T03:08:09.400Z,11.09
2023-05-20T03:09:09.393Z,11.03
2023-05-20T03:10:09.438Z,11.00
2023-05-20T03:11:09.384Z,11.04
2023-05-20T03:12:09.378Z,11.06
2023-05-20T03:13:09.363Z,11.00
2023-05-20T03:14:09.325Z,11.03
2023-05-20T03:15:09.351Z,11.02
2023-05-20T03:16:09.343Z,10.97
2023-05-20T03:17:09.297Z,11.02
2023-05-20T03:18:09.308Z,11.00
2023-05-20T03:19:09.339Z,11.06
2023-05-20T03:20:09.363Z,10.97
2023-05-20T03:21:09.248Z,11.02
2023-05-20T03:22:09.234Z,11.07
2023-05-20T03:23:09.235Z,10.97
2023-05-20T03:24:09.239Z,10.99
2023-05-20T03:25:09.218Z,10.96
2023-05-20T03:26:09.186Z,10.96
2023-05-20T03:27:09.211Z,11.02
2023-05-20T03:28:09.161Z,11.04
2023-05-20T03:29:09.178Z,10.94
2023-05-20T03:30:09.158Z,11.10
2023-05-20T03:31:09.198Z,10.99
2023-05-20T03:32:10.826Z,11.06
2023-05-20T03:33:09.116Z,10.97
2023-05-20T03:34:09.087Z,10.86
2023-05-20T03:35:09.088Z,10.99
2023-05-20T03:36:09.150Z,10.97
2023-05-20T03:37:09.064Z,10.85
2023-05-20T03:38:09.050Z,10.86
2023-05-20T03:39:09.051Z,10.89
2023-05-20T03:40:09.023Z,10.91
2023-05-20T03:41:09.037Z,10.94
2023-05-20T03:42:09.007Z,10.88
2023-05-20T03:43:09.028Z,10.89
2023-05-20T03:44:08.982Z,10.88
2023-05-20T03:45:08.997Z,10.85
2023-05-20T03:46:09.002Z,10.94
2023-05-20T03:47:08.970Z,10.86
2023-05-20T03:48:08.994Z,10.91
2023-05-20T03:49:08.933Z,10.91
2023-05-20T03:50:08.938Z,10.85
2023-05-20T03:51:09.893Z,10.85
2023-05-20T03:52:08.920Z,10.89
2023-05-20T03:53:08.887Z,10.89
2023-05-20T03:54:08.870Z,10.91
2023-05-20T03:55:08.942Z,10.88
2023-05-20T03:56:08.838Z,10.94
2023-05-20T03:57:08.834Z,10.88
2023-05-20T03:58:08.814Z,10.92
2023-05-20T03:59:08.818Z,10.88
2023-05-20T04:00:08.821Z,10.99
2023-05-20T04:01:08.792Z,10.89
2023-05-20T04:02:08.915Z,10.96
2023-05-20T04:03:08.940Z,10.97
2023-05-20T04:04:08.832Z,10.99
2023-05-20T04:05:08.815Z,10.85
2023-05-20T04:06:08.743Z,10.85
2023-05-20T04:07:08.737Z,10.82
2023-05-20T04:08:08.720Z,10.84
2023-05-20T04:09:08.713Z,10.92
2023-05-20T04:10:08.686Z,10.88
2023-05-20T04:11:08.676Z,10.85
2023-05-20T04:12:08.655Z,10.89
2023-05-20T04:13:08.671Z,10.91
2023-05-20T04:14:08.631Z,10.79
2023-05-20T04:15:08.637Z,10.84
2023-05-20T04:16:08.682Z,10.86
2023-05-20T04:17:08.682Z,10.84
2023-05-20T04:18:08.624Z,10.89
2023-05-20T04:19:08.615Z,10.89
2023-05-20T04:20:08.561Z,10.85
2023-05-20T04:21:08.574Z,10.86
2023-05-20T04:22:08.541Z,10.96
2023-05-20T04:23:08.543Z,10.91
2023-05-20T04:24:08.555Z,11.02
2023-05-20T04:25:08.537Z,10.97
2023-05-20T04:26:08.525Z,10.99
2023-05-20T04:27:08.513Z,10.97
2023-05-20T04:28:08.471Z,11.02
2023-05-20T04:29:08.476Z,11.04
2023-05-20T04:30:08.479Z,11.00
2023-05-20T04:31:08.451Z,10.96
2023-05-20T04:32:08.494Z,11.02
2023-05-20T04:33:08.439Z,11.17
2023-05-20T04:34:08.426Z,11.07
2023-05-20T04:35:08.410Z,11.04
2023-05-20T04:36:08.381Z,11.22
2023-05-20T04:37:08.380Z,11.18
2023-05-20T04:38:08.359Z,11.15
2023-05-20T04:39:08.373Z,11.18
2023-05-20T04:40:08.434Z,11.22
2023-05-20T04:41:08.339Z,11.32
2023-05-20T04:42:08.313Z,11.27
2023-05-20T04:43:08.306Z,11.25
2023-05-20T04:44:08.292Z,11.29
2023-05-20T04:45:08.306Z,11.35
2023-05-20T04:46:08.303Z,11.24
2023-05-20T04:47:08.276Z,11.33
2023-05-20T04:48:08.311Z,11.22
2023-05-20T04:49:08.238Z,11.37
2023-05-20T04:50:08.254Z,11.37
2023-05-20T04:51:08.219Z,11.40
2023-05-20T04:52:08.214Z,11.43
2023-05-20T04:53:08.203Z,11.61
2023-05-20T04:54:08.194Z,11.60
2023-05-20T04:55:08.168Z,11.62
2023-05-20T04:56:08.177Z,11.69
2023-05-20T04:57:08.149Z,11.69
2023-05-20T04:58:08.146Z,11.67
2023-05-20T04:59:08.153Z,11.82
2023-05-20T05:00:08.105Z,11.78
2023-05-20T05:01:08.117Z,11.90
2023-05-20T05:02:08.179Z,11.90
2023-05-20T05:03:08.189Z,12.04
2023-05-20T05:04:08.112Z,12.05
2023-05-20T05:05:08.102Z,12.05
2023-05-20T05:06:08.041Z,12.09
2023-05-20T05:07:08.033Z,12.10
2023-05-20T05:08:08.032Z,12.02
2023-05-20T05:09:08.008Z,12.02
2023-05-20T05:10:08.001Z,12.02
2023-05-20T05:11:07.992Z,12.13
2023-05-20T05:12:07.989Z,12.07
2023-05-20T05:13:07.983Z,12.10
2023-05-20T05:14:07.966Z,12.10
2023-05-20T05:15:07.951Z,12.09
2023-05-20T05:16:07.962Z,12.09
2023-05-20T05:17:07.932Z,12.09
2023-05-20T05:18:07.929Z,12.10
2023-05-20T05:19:07.926Z,12.05
2023-05-20T05:20:07.882Z,12.10
2023-05-20T05:21:07.900Z,12.05
2023-05-20T05:22:07.881Z,12.05
2023-05-20T05:23:07.862Z,12.09
2023-05-20T05:24:07.858Z,12.12
2023-05-20T05:25:07.833Z,12.04
2023-05-20T05:26:07.836Z,12.12
2023-05-20T05:27:07.804Z,12.05
2023-05-20T05:28:07.910Z,11.96
2023-05-20T05:29:08.812Z,11.99
2023-05-20T05:30:07.766Z,12.02
2023-05-20T05:31:07.784Z,11.99
2023-05-20T05:32:07.769Z,12.04
2023-05-20T05:33:07.866Z,11.99
2023-05-20T05:34:07.724Z,12.04
2023-05-20T05:35:08.500Z,11.96
2023-05-20T05:36:07.701Z,12.13
2023-05-20T05:37:07.708Z,12.07
2023-05-20T05:38:07.685Z,12.04
2023-05-20T05:39:07.666Z,12.12
2023-05-20T05:40:07.657Z,12.17
2023-05-20T05:41:07.645Z,12.21
2023-05-20T05:42:07.649Z,12.28
2023-05-20T05:43:07.625Z,12.27
2023-05-20T05:44:07.623Z,12.32
2023-05-20T05:45:07.669Z,12.31
2023-05-20T05:46:07.593Z,12.20
2023-05-20T05:47:07.705Z,12.41
2023-05-20T05:48:07.624Z,12.41
2023-05-20T05:49:07.569Z,12.41
2023-05-20T05:50:07.548Z,12.54
2023-05-20T05:51:07.536Z,12.53
2023-05-20T05:52:07.522Z,12.54
2023-05-20T05:53:07.529Z,12.50
2023-05-20T05:54:07.484Z,12.53
2023-05-20T05:55:07.485Z,12.60
2023-05-20T05:56:07.470Z,12.68
2023-05-20T05:57:07.464Z,12.74
2023-05-20T05:58:07.467Z,12.78
2023-05-20T05:59:07.458Z,12.83
2023-05-20T06:00:07.500Z,12.87
2023-05-20T06:01:07.417Z,12.87
2023-05-20T06:02:07.424Z,12.97
2023-05-20T06:03:07.467Z,12.96
2023-05-20T06:04:07.488Z,13.08
2023-05-20T06:05:07.404Z,13.08
2023-05-20T06:06:07.349Z,13.07
2023-05-20T06:07:07.349Z,12.96
2023-05-20T06:08:07.342Z,13.11
2023-05-20T06:09:07.321Z,13.23
2023-05-20T06:10:07.327Z,13.11
2023-05-20T06:11:07.296Z,13.26
2023-05-20T06:12:07.311Z,13.33
2023-05-20T06:13:07.270Z,13.42
2023-05-20T06:14:07.250Z,13.45
2023-05-20T06:15:07.249Z,13.44
2023-05-20T06:16:07.257Z,13.42
2023-05-20T06:17:07.417Z,13.52
2023-05-20T06:18:07.228Z,13.62
2023-05-20T06:19:07.219Z,13.66
2023-05-20T06:20:07.189Z,13.84
2023-05-20T06:21:07.182Z,13.71
2023-05-20T06:22:07.189Z,13.78
2023-05-20T06:23:07.169Z,13.79
2023-05-20T06:24:07.140Z,13.78
2023-05-20T06:25:07.192Z,13.82
2023-05-20T06:26:07.115Z,13.79
2023-05-20T06:27:07.119Z,13.71
2023-05-20T06:28:07.118Z,13.81
2023-05-20T06:29:07.101Z,13.82
2023-05-20T06:30:07.093Z,13.88
2023-05-20T06:31:07.127Z,13.99
2023-05-20T06:32:07.075Z,14.00
2023-05-20T06:33:07.119Z,13.96
2023-05-20T06:34:07.029Z,13.92
2023-05-20T06:35:07.041Z,14.10
2023-05-20T06:36:07.031Z,14.17
2023-05-20T06:37:07.000Z,14.17
2023-05-20T06:38:07.100Z,14.28
2023-05-20T06:39:06.972Z,14.29
2023-05-20T06:40:06.964Z,14.45
2023-05-20T06:41:06.980Z,14.58
2023-05-20T06:42:06.956Z,14.60
2023-05-20T06:43:06.967Z,14.64
2023-05-20T06:44:06.937Z,14.65
2023-05-20T06:45:06.918Z,14.83
2023-05-20T06:46:06.916Z,14.92
2023-05-20T06:47:06.893Z,14.94
2023-05-20T06:48:06.923Z,14.92
2023-05-20T06:49:06.926Z,15.02
2023-05-20T06:50:06.838Z,14.94
2023-05-20T06:51:06.833Z,15.01
2023-05-20T06:52:06.846Z,14.98
2023-05-20T06:53:06.826Z,15.02
2023-05-20T06:54:06.792Z,14.91
2023-05-20T06:55:06.829Z,14.81
2023-05-20T06:56:06.772Z,14.89
2023-05-20T06:57:06.826Z,15.01
2023-05-20T06:58:06.762Z,15.10
2023-05-20T06:59:06.748Z,15.11
2023-05-20T07:00:06.748Z,15.19
2023-05-20T07:01:06.727Z,15.35
2023-05-20T07:02:06.851Z,15.38
2023-05-20T07:03:06.793Z,15.39
2023-05-20T07:04:06.749Z,15.43
2023-05-20T07:05:08.736Z,15.50
2023-05-20T07:06:06.743Z,15.53
2023-05-20T07:07:06.739Z,15.53
2023-05-20T07:08:06.669Z,15.62
2023-05-20T07:09:06.695Z,15.62
2023-05-20T07:10:06.617Z,15.71
2023-05-20T07:11:06.601Z,15.71
2023-05-20T07:12:06.592Z,15.60
2023-05-20T07:13:06.613Z,15.67
2023-05-20T07:14:06.587Z,15.65
2023-05-20T07:15:06.554Z,15.74
2023-05-20T07:16:06.643Z,15.76
2023-05-20T07:17:06.566Z,15.72
2023-05-20T07:18:06.706Z,15.60
2023-05-20T07:19:06.533Z,15.59
2023-05-20T07:20:06.526Z,15.60
2023-05-20T07:21:06.662Z,15.59
2023-05-20T07:22:06.486Z,15.53
2023-05-20T07:23:06.520Z,15.57
2023-05-20T07:24:06.483Z,15.53
2023-05-20T07:25:06.432Z,15.54
2023-05-20T07:26:06.424Z,15.59
2023-05-20T07:27:06.420Z,15.59
2023-05-20T07:28:06.407Z,15.43
2023-05-20T07:29:06.392Z,15.38
2023-05-20T07:30:06.392Z,15.44
2023-05-20T07:31:06.359Z,15.44
2023-05-20T07:32:06.468Z,15.38
2023-05-20T07:33:06.427Z,15.38
2023-05-20T07:34:06.414Z,15.32
2023-05-20T07:35:15.219Z,15.31
2023-05-20T07:36:07.470Z,15.36
2023-05-20T07:37:06.472Z,15.38
2023-05-20T07:38:06.418Z,15.47
2023-05-20T07:39:10.373Z,15.69
2023-05-20T07:40:07.323Z,15.76
2023-05-20T07:41:06.273Z,15.89
2023-05-20T07:42:06.296Z,15.96
2023-05-20T07:43:06.232Z,16.11
2023-05-20T07:44:06.245Z,16.08
2023-05-20T07:45:06.277Z,15.86
2023-05-20T07:46:06.293Z,15.68
2023-05-20T07:47:06.190Z,15.80
2023-05-20T07:48:06.214Z,15.60
2023-05-20T07:49:06.163Z,15.60
2023-05-20T07:50:13.186Z,15.64
2023-05-20T07:51:06.147Z,15.69
2023-05-20T07:52:06.142Z,15.71
2023-05-20T07:53:06.119Z,15.90
2023-05-20T07:54:06.144Z,16.02
2023-05-20T07:55:06.089Z,16.12
2023-05-20T07:56:06.078Z,16.25
2023-05-20T07:57:06.101Z,16.53
2023-05-20T07:58:06.078Z,16.79
2023-05-20T07:59:06.033Z,16.94
2023-05-20T08:00:06.026Z,17.16
2023-05-20T08:01:06.070Z,17.28
2023-05-20T08:02:06.049Z,17.23
2023-05-20T08:03:06.167Z,17.03
2023-05-20T08:04:06.080Z,17.00
2023-05-20T08:05:05.978Z,16.98
2023-05-20T08:06:05.994Z,16.93
2023-05-20T08:07:05.972Z,17.19
2023-05-20T08:08:05.937Z,17.23
2023-05-20T08:09:05.940Z,17.16
2023-05-20T08:10:05.934Z,17.22
2023-05-20T08:11:05.917Z,17.16
2023-05-20T08:12:05.899Z,17.14
2023-05-20T08:13:05.876Z,17.16
2023-05-20T08:14:05.870Z,17.25
2023-05-20T08:15:05.865Z,17.15
2023-05-20T08:16:05.847Z,17.16
2023-05-20T08:17:05.877Z,17.22
2023-05-20T08:18:05.926Z,17.26
2023-05-20T08:19:06.002Z,17.37
2023-05-20T08:20:05.802Z,17.49
2023-05-20T08:21:05.781Z,17.71
2023-05-20T08:22:05.791Z,17.81
2023-05-20T08:23:05.865Z,17.81
2023-05-20T08:24:05.770Z,17.78
2023-05-20T08:25:05.743Z,17.87
2023-05-20T08:26:05.744Z,17.70
2023-05-20T08:27:05.717Z,17.74
2023-05-20T08:28:05.710Z,17.89
2023-05-20T08:29:05.702Z,17.63
2023-05-20T08:30:05.687Z,17.41
2023-05-20T08:31:05.745Z,17.49
2023-05-20T08:32:05.680Z,17.68
2023-05-20T08:33:05.658Z,17.71
2023-05-20T08:34:05.646Z,17.78
2023-05-20T08:35:05.636Z,17.74
2023-05-20T08:36:05.614Z,17.89
2023-05-20T08:37:05.646Z,17.70
2023-05-20T08:38:05.845Z,17.70
2023-05-20T08:39:05.614Z,17.74
2023-05-20T08:40:05.620Z,17.86
2023-05-20T08:41:05.550Z,17.77
2023-05-20T08:42:08.399Z,17.78
2023-05-20T08:43:05.545Z,17.72
2023-05-20T08:44:05.518Z,17.87
2023-05-20T08:45:05.523Z,17.84
2023-05-20T08:46:05.588Z,17.81
2023-05-20T08:47:05.480Z,17.79
2023-05-20T08:48:05.504Z,17.79
2023-05-20T08:49:05.476Z,17.72
2023-05-20T08:50:05.484Z,17.78
2023-05-20T08:51:05.475Z,17.90
2023-05-20T08:52:05.569Z,17.95
2023-05-20T08:53:05.417Z,18.03
2023-05-20T08:54:05.406Z,18.07
2023-05-20T08:55:05.434Z,18.02
2023-05-20T08:56:05.407Z,17.81
2023-05-20T08:57:05.381Z,17.74
2023-05-20T08:58:05.382Z,17.97
2023-05-20T08:59:05.372Z,18.08
2023-05-20T09:00:05.369Z,18.15
2023-05-20T09:01:05.335Z,18.30
2023-05-20T09:02:05.382Z,18.33
2023-05-20T09:03:05.386Z,18.39
2023-05-20T09:04:05.324Z,18.44
2023-05-20T09:05:05.340Z,18.45
2023-05-20T09:06:05.292Z,18.67
2023-05-20T09:07:05.262Z,18.81
2023-05-20T09:08:05.503Z,18.95
2023-05-20T09:09:05.261Z,18.95
2023-05-20T09:10:05.276Z,18.76
2023-05-20T09:11:05.293Z,18.91
2023-05-20T09:12:05.209Z,18.98
2023-05-20T09:13:05.251Z,19.06
2023-05-20T09:14:05.199Z,19.07
2023-05-20T09:15:05.202Z,19.08
2023-05-20T09:16:05.250Z,19.00
2023-05-20T09:17:05.159Z,18.84
2023-05-20T09:18:05.185Z,18.78
2023-05-20T09:19:05.247Z,18.75
2023-05-20T09:20:05.117Z,18.94
2023-05-20T09:21:05.106Z,19.07
2023-05-20T09:22:05.124Z,19.26
2023-05-20T09:23:05.073Z,19.25
2023-05-20T09:24:05.087Z,19.33
2023-05-20T09:25:05.050Z,19.32
2023-05-20T09:26:05.060Z,19.36
2023-05-20T09:27:05.056Z,19.50
2023-05-20T09:28:05.053Z,19.62
2023-05-20T09:29:05.018Z,19.65
2023-05-20T09:30:04.996Z,19.88
2023-05-20T09:31:04.979Z,20.05
2023-05-20T09:32:05.148Z,20.24
2023-05-20T09:33:05.095Z,20.42
2023-05-20T09:34:04.973Z,20.57
2023-05-20T09:35:04.943Z,20.61
2023-05-20T09:36:04.958Z,20.79
2023-05-20T09:37:04.913Z,20.77
2023-05-20T09:38:04.958Z,20.72
2023-05-20T09:39:04.889Z,20.74
2023-05-20T09:40:04.882Z,20.77
2023-05-20T09:41:04.891Z,20.95
2023-05-20T09:42:04.866Z,21.01
2023-05-20T09:43:04.866Z,20.91
2023-05-20T09:44:04.840Z,20.92
2023-05-20T09:45:04.840Z,20.94
2023-05-20T09:46:04.864Z,21.12
2023-05-20T09:47:06.997Z,21.29
2023-05-20T09:48:04.825Z,21.32
2023-05-20T09:49:04.773Z,21.37
2023-05-20T09:50:04.789Z,21.37
2023-05-20T09:51:04.768Z,21.49
2023-05-20T09:52:04.758Z,21.69
2023-05-20T09:53:04.746Z,21.88
2023-05-20T09:54:04.750Z,21.90
2023-05-20T09:55:04.709Z,22.07
2023-05-20T09:56:04.720Z,22.07
2023-05-20T09:57:04.721Z,22.20
2023-05-20T09:58:04.695Z,22.24
2023-05-20T09:59:04.704Z,22.36
2023-05-20T10:00:04.679Z,22.36
2023-05-20T10:01:04.671Z,22.21
2023-05-20T10:02:04.634Z,22.15
2023-05-20T10:03:04.762Z,22.10
2023-05-20T10:04:04.704Z,21.80
2023-05-20T10:05:04.644Z,21.99
2023-05-20T10:06:04.607Z,21.96
2023-05-20T10:07:04.575Z,22.02
2023-05-20T10:08:04.598Z,22.17
2023-05-20T10:09:04.553Z,22.10
2023-05-20T10:10:04.546Z,21.98
2023-05-20T10:11:04.553Z,22.15
2023-05-20T10:12:04.525Z,22.15
2023-05-20T10:13:04.525Z,22.30
2023-05-20T10:14:04.502Z,22.46
2023-05-20T10:15:05.458Z,22.61
2023-05-20T10:16:04.536Z,22.68
2023-05-20T10:17:04.461Z,22.82
2023-05-20T10:18:04.578Z,22.90
2023-05-20T10:19:04.479Z,22.91
2023-05-20T10:20:06.681Z,22.83
2023-05-20T10:21:04.434Z,22.85
2023-05-20T10:22:04.430Z,22.75
2023-05-20T10:23:04.410Z,22.62
2023-05-20T10:24:04.388Z,22.52
2023-05-20T10:25:04.372Z,22.49
2023-05-20T10:26:04.390Z,22.51
2023-05-20T10:27:04.371Z,22.49
2023-05-20T10:28:04.375Z,22.49
2023-05-20T10:29:04.328Z,22.46
2023-05-20T10:30:04.434Z,22.43
2023-05-20T10:31:04.348Z,22.40
2023-05-20T10:32:04.345Z,22.21
2023-05-20T10:33:04.431Z,21.94
2023-05-20T10:34:04.277Z,21.40
2023-05-20T10:35:04.272Z,21.29
2023-05-20T10:36:04.282Z,21.25
2023-05-20T10:37:04.235Z,21.25
2023-05-20T10:38:04.236Z,21.37
2023-05-20T10:39:04.241Z,21.50
2023-05-20T10:40:04.220Z,21.06
2023-05-20T10:41:04.208Z,20.94
2023-05-20T10:42:04.186Z,21.09
2023-05-20T10:43:04.168Z,21.27
2023-05-20T10:44:04.184Z,21.31
2023-05-20T10:45:04.185Z,21.35
2023-05-20T10:46:07.469Z,21.28
2023-05-20T10:48:04.179Z,21.56
2023-05-20T10:49:04.255Z,21.82
2023-05-20T10:50:04.104Z,22.02
2023-05-20T10:51:04.156Z,21.96
2023-05-20T10:52:04.074Z,21.99
2023-05-20T10:53:04.076Z,22.10
2023-05-20T10:54:04.062Z,22.10
2023-05-20T10:55:04.053Z,22.25
2023-05-20T10:56:04.032Z,22.45
2023-05-20T10:57:04.007Z,22.73
2023-05-20T10:58:04.026Z,22.72
2023-05-20T10:59:03.989Z,22.40
2023-05-20T11:00:04.008Z,22.21
2023-05-20T11:01:04.000Z,22.37
2023-05-20T11:02:03.958Z,22.51
2023-05-20T11:03:04.071Z,22.70
2023-05-20T11:04:04.038Z,22.90
2023-05-20T11:05:03.927Z,22.88
2023-05-20T11:06:03.912Z,22.80
2023-05-20T11:07:03.913Z,22.75
2023-05-20T11:08:08.081Z,22.82
2023-05-20T11:09:04.870Z,22.90
2023-05-20T11:10:03.885Z,22.83
2023-05-20T11:11:03.876Z,22.85
2023-05-20T11:12:03.881Z,22.62
2023-05-20T11:13:03.905Z,22.51
2023-05-20T11:14:03.822Z,22.33
2023-05-20T11:15:03.857Z,21.91
2023-05-20T11:16:03.842Z,21.96
2023-05-20T11:17:03.958Z,21.84
2023-05-20T11:18:03.802Z,21.99
2023-05-20T11:19:03.811Z,21.83
2023-05-20T11:20:03.781Z,21.99
2023-05-20T11:21:03.830Z,22.21
2023-05-20T11:22:03.737Z,22.49
2023-05-20T11:23:03.722Z,22.86
2023-05-20T11:24:03.741Z,23.07
2023-05-20T11:25:03.724Z,23.05
2023-05-20T11:26:03.706Z,23.02
2023-05-20T11:27:03.681Z,22.97
2023-05-20T11:28:03.672Z,23.10
2023-05-20T11:29:03.683Z,23.22
2023-05-20T11:30:03.643Z,23.42
2023-05-20T11:31:03.635Z,23.42
2023-05-20T11:32:03.715Z,23.40
2023-05-20T11:33:03.668Z,23.20
2023-05-20T11:34:03.722Z,23.25
2023-05-20T11:35:03.622Z,23.36
2023-05-20T11:36:06.430Z,23.43
2023-05-20T11:37:04.611Z,23.33
2023-05-20T11:38:03.580Z,23.27
2023-05-20T11:39:03.557Z,23.38
2023-05-20T11:40:03.535Z,23.47
2023-05-20T11:41:03.542Z,23.23
2023-05-20T11:42:03.504Z,23.00
2023-05-20T11:43:03.515Z,22.85
2023-05-20T11:44:03.489Z,22.76
2023-05-20T11:45:03.481Z,22.79
2023-05-20T11:46:03.526Z,22.90
2023-05-20T11:47:03.653Z,22.82
2023-05-20T11:48:03.537Z,22.67
2023-05-20T11:49:03.429Z,22.65
2023-05-20T11:50:03.429Z,22.52
2023-05-20T11:51:03.456Z,22.27
2023-05-20T11:52:06.144Z,22.21
2023-05-20T11:53:03.391Z,22.09
2023-05-20T11:54:03.368Z,22.18
2023-05-20T11:55:03.425Z,22.25
2023-05-20T11:56:03.373Z,22.25
2023-05-20T11:57:04.636Z,22.45
2023-05-20T11:58:03.335Z,22.62
2023-05-20T11:59:03.341Z,22.73
2023-05-20T12:00:03.333Z,22.80
2023-05-20T12:01:17.914Z,22.80
2023-05-20T12:02:04.276Z,22.76
2023-05-20T12:03:03.359Z,22.80
2023-05-20T12:04:03.387Z,22.98
2023-05-20T12:05:03.321Z,23.05
2023-05-20T12:06:03.274Z,23.32
2023-05-20T12:07:03.261Z,23.23
2023-05-20T12:08:03.219Z,23.43
2023-05-20T12:09:03.236Z,23.60
2023-05-20T12:10:03.210Z,23.54
2023-05-20T12:11:03.204Z,23.76
2023-05-20T12:12:03.190Z,23.80
2023-05-20T12:13:03.167Z,23.80
2023-05-20T12:14:03.142Z,23.68
2023-05-20T12:15:03.137Z,23.58
2023-05-20T12:16:03.154Z,23.36
2023-05-20T12:17:03.137Z,23.22
2023-05-20T12:18:03.121Z,23.19
2023-05-20T12:19:03.151Z,23.20
2023-05-20T12:20:03.084Z,23.19
2023-05-20T12:21:03.078Z,23.32
2023-05-20T12:22:03.062Z,23.58
2023-05-20T12:23:03.095Z,23.50
2023-05-20T12:24:03.029Z,23.57
2023-05-20T12:25:03.034Z,23.57
2023-05-20T12:26:03.014Z,23.43
2023-05-20T12:27:03.004Z,23.43
2023-05-20T12:28:03.011Z,23.42
2023-05-20T12:29:02.979Z,23.31
2023-05-20T12:30:03.007Z,23.16
2023-05-20T12:31:02.961Z,23.31
2023-05-20T12:32:03.010Z,23.16
2023-05-20T12:33:02.975Z,23.20
2023-05-20T12:34:02.943Z,23.22
2023-05-20T12:35:02.982Z,23.32
2023-05-20T12:36:02.909Z,23.35
2023-05-20T12:37:02.894Z,23.72
2023-05-20T12:38:02.889Z,23.90
2023-05-20T12:39:02.906Z,24.05
2023-05-20T12:40:02.872Z,24.43
2023-05-20T12:41:02.860Z,24.57
2023-05-20T12:42:02.830Z,24.52
2023-05-20T12:43:02.845Z,24.57
2023-05-20T12:44:02.801Z,24.69
2023-05-20T12:45:02.812Z,24.91
2023-05-20T12:46:02.787Z,25.06
2023-05-20T12:47:02.839Z,25.14
2023-05-20T12:48:02.934Z,25.13
2023-05-20T12:49:02.748Z,24.87
2023-05-20T12:50:02.732Z,24.45
2023-05-20T12:51:02.754Z,24.43
2023-05-20T12:52:08.527Z,23.98
2023-05-20T12:53:03.729Z,23.84